sensor_id;sensor_type;location;lat;lon;timestamp;P1;durP1;ratioP1;P2;durP2;ratioP2
24102;SDS011;12278;53.058;9.028;2023-03-25T00:03:13;4.10;;;3.67;;
24102;SDS011;12278;53.058;9.028;2023-03-25T00:07:13;7.22;;;3.65;;
24102;SDS011;12278;53.058;9.028;2023-03-25T00:11:14;6.45;;;3.65;;
24102;SDS011;12278;53.058;9.028;2023-03-25T00:15:15;5.32;;;3.53;;
24102;SDS011;12278;53.058;9.028;2023-03-25T00:19:20;7.07;;;4.32;;
24102;SDS011;12278;53.058;9.028;2023-03-25T00:23:21;4.95;;;3.33;;
24102;SDS011;12278;53.058;9.028;2023-03-25T00:27:22;8.45;;;4.15;;
24102;SDS011;12278;53.058;9.028;2023-03-25T00:31:22;5.93;;;3.95;;
24102;SDS011;12278;53.058;9.028;2023-03-25T00:35:23;4.35;;;3.28;;
24102;SDS011;12278;53.058;9.028;2023-03-25T00:39:24;6.40;;;3.50;;
24102;SDS011;12278;53.058;9.028;2023-03-25T00:43:25;8.35;;;4.32;;
24102;SDS011;12278;53.058;9.028;2023-03-25T00:47:26;3.60;;;3.15;;
24102;SDS011;12278;53.058;9.028;2023-03-25T00:51:27;5.97;;;3.20;;
24102;SDS011;12278;53.058;9.028;2023-03-25T00:55:34;6.88;;;3.38;;
24102;SDS011;12278;53.058;9.028;2023-03-25T00:59:34;2.95;;;2.10;;
24102;SDS011;12278;53.058;9.028;2023-03-25T01:03:35;9.05;;;3.63;;
24102;SDS011;12278;53.058;9.028;2023-03-25T01:07:36;3.22;;;2.25;;
24102;SDS011;12278;53.058;9.028;2023-03-25T01:11:39;4.25;;;3.08;;
24102;SDS011;12278;53.058;9.028;2023-03-25T01:15:42;7.93;;;2.42;;
24102;SDS011;12278;53.058;9.028;2023-03-25T01:19:43;4.60;;;2.38;;
24102;SDS011;12278;53.058;9.028;2023-03-25T01:23:44;3.67;;;2.10;;
24102;SDS011;12278;53.058;9.028;2023-03-25T01:27:44;5.50;;;3.13;;
24102;SDS011;12278;53.058;9.028;2023-03-25T01:31:46;2.80;;;1.77;;
24102;SDS011;12278;53.058;9.028;2023-03-25T01:35:47;2.95;;;2.08;;
24102;SDS011;12278;53.058;9.028;2023-03-25T01:39:48;4.68;;;2.25;;
24102;SDS011;12278;53.058;9.028;2023-03-25T01:48:29;5.95;;;2.67;;
24102;SDS011;12278;53.058;9.028;2023-03-25T01:52:36;7.28;;;2.10;;
24102;SDS011;12278;53.058;9.028;2023-03-25T01:56:37;4.97;;;2.58;;
24102;SDS011;12278;53.058;9.028;2023-03-25T02:00:40;6.30;;;2.47;;
24102;SDS011;12278;53.058;9.028;2023-03-25T02:04:48;3.75;;;1.90;;
24102;SDS011;12278;53.058;9.028;2023-03-25T02:09:02;3.00;;;1.83;;
24102;SDS011;12278;53.058;9.028;2023-03-25T02:13:08;2.42;;;1.77;;
24102;SDS011;12278;53.058;9.028;2023-03-25T02:21:44;2.13;;;1.80;;
24102;SDS011;12278;53.058;9.028;2023-03-25T02:39:03;4.22;;;2.40;;
24102;SDS011;12278;53.058;9.028;2023-03-25T02:47:45;4.90;;;2.05;;
24102;SDS011;12278;53.058;9.028;2023-03-25T02:51:55;3.65;;;1.83;;
24102;SDS011;12278;53.058;9.028;2023-03-25T02:56:11;2.80;;;2.30;;
24102;SDS011;12278;53.058;9.028;2023-03-25T03:00:16;1.92;;;1.42;;
24102;SDS011;12278;53.058;9.028;2023-03-25T03:04:21;3.20;;;2.05;;
24102;SDS011;12278;53.058;9.028;2023-03-25T03:21:32;3.05;;;1.88;;
24102;SDS011;12278;53.058;9.028;2023-03-25T03:25:54;3.30;;;1.70;;
24102;SDS011;12278;53.058;9.028;2023-03-25T03:34:12;5.10;;;1.80;;
24102;SDS011;12278;53.058;9.028;2023-03-25T03:38:37;2.13;;;1.92;;
24102;SDS011;12278;53.058;9.028;2023-03-25T03:47:17;4.78;;;2.33;;
24102;SDS011;12278;53.058;9.028;2023-03-25T03:51:27;2.92;;;2.47;;
24102;SDS011;12278;53.058;9.028;2023-03-25T03:59:59;4.40;;;2.00;;
24102;SDS011;12278;53.058;9.028;2023-03-25T04:04:03;2.10;;;1.90;;
24102;SDS011;12278;53.058;9.028;2023-03-25T04:08:08;3.33;;;2.15;;
24102;SDS011;12278;53.058;9.028;2023-03-25T04:12:18;3.42;;;2.13;;
24102;SDS011;12278;53.058;9.028;2023-03-25T04:16:34;5.35;;;2.83;;
24102;SDS011;12278;53.058;9.028;2023-03-25T04:20:36;6.60;;;3.00;;
24102;SDS011;12278;53.058;9.028;2023-03-25T04:24:43;13.50;;;2.45;;
24102;SDS011;12278;53.058;9.028;2023-03-25T04:28:44;6.05;;;2.25;;
24102;SDS011;12278;53.058;9.028;2023-03-25T04:32:45;5.18;;;2.80;;
24102;SDS011;12278;53.058;9.028;2023-03-25T04:36:46;8.90;;;2.90;;
24102;SDS011;12278;53.058;9.028;2023-03-25T04:40:49;8.27;;;2.40;;
24102;SDS011;12278;53.058;9.028;2023-03-25T04:44:49;8.82;;;3.30;;
24102;SDS011;12278;53.058;9.028;2023-03-25T04:48:53;11.50;;;3.38;;
24102;SDS011;12278;53.058;9.028;2023-03-25T04:52:59;4.50;;;2.65;;
24102;SDS011;12278;53.058;9.028;2023-03-25T04:56:59;10.70;;;4.07;;
24102;SDS011;12278;53.058;9.028;2023-03-25T05:01:00;8.90;;;3.87;;
24102;SDS011;12278;53.058;9.028;2023-03-25T05:05:07;8.85;;;3.90;;
24102;SDS011;12278;53.058;9.028;2023-03-25T05:09:12;6.43;;;2.80;;
24102;SDS011;12278;53.058;9.028;2023-03-25T05:13:15;6.40;;;3.40;;
24102;SDS011;12278;53.058;9.028;2023-03-25T05:21:19;9.60;;;3.20;;
24102;SDS011;12278;53.058;9.028;2023-03-25T05:25:20;9.40;;;3.63;;
24102;SDS011;12278;53.058;9.028;2023-03-25T05:29:21;6.20;;;3.10;;
24102;SDS011;12278;53.058;9.028;2023-03-25T05:33:22;8.57;;;3.20;;
24102;SDS011;12278;53.058;9.028;2023-03-25T05:37:22;5.37;;;2.57;;
24102;SDS011;12278;53.058;9.028;2023-03-25T05:41:25;6.87;;;3.33;;
24102;SDS011;12278;53.058;9.028;2023-03-25T05:45:37;4.50;;;2.37;;
24102;SDS011;12278;53.058;9.028;2023-03-25T05:49:38;4.30;;;2.50;;
24102;SDS011;12278;53.058;9.028;2023-03-25T05:53:41;5.17;;;2.30;;
24102;SDS011;12278;53.058;9.028;2023-03-25T05:57:43;8.23;;;2.55;;
24102;SDS011;12278;53.058;9.028;2023-03-25T06:01:44;5.27;;;2.40;;
24102;SDS011;12278;53.058;9.028;2023-03-25T06:05:44;6.77;;;2.17;;
24102;SDS011;12278;53.058;9.028;2023-03-25T06:09:46;5.27;;;2.60;;
24102;SDS011;12278;53.058;9.028;2023-03-25T06:13:48;5.77;;;2.53;;
24102;SDS011;12278;53.058;9.028;2023-03-25T06:17:49;5.47;;;2.30;;
24102;SDS011;12278;53.058;9.028;2023-03-25T06:21:49;4.85;;;2.70;;
24102;SDS011;12278;53.058;9.028;2023-03-25T06:25:51;5.93;;;2.63;;
24102;SDS011;12278;53.058;9.028;2023-03-25T06:29:53;4.07;;;2.20;;
24102;SDS011;12278;53.058;9.028;2023-03-25T06:33:54;3.63;;;2.43;;
24102;SDS011;12278;53.058;9.028;2023-03-25T06:37:58;2.53;;;1.85;;
24102;SDS011;12278;53.058;9.028;2023-03-25T06:42:01;5.13;;;2.20;;
24102;SDS011;12278;53.058;9.028;2023-03-25T06:46:09;3.25;;;2.10;;
24102;SDS011;12278;53.058;9.028;2023-03-25T06:50:10;1.80;;;1.67;;
24102;SDS011;12278;53.058;9.028;2023-03-25T06:54:11;3.70;;;1.90;;
24102;SDS011;12278;53.058;9.028;2023-03-25T06:58:17;4.20;;;1.65;;
24102;SDS011;12278;53.058;9.028;2023-03-25T07:02:20;3.23;;;1.77;;
24102;SDS011;12278;53.058;9.028;2023-03-25T07:06:21;3.40;;;1.88;;
24102;SDS011;12278;53.058;9.028;2023-03-25T07:10:31;4.18;;;1.70;;
24102;SDS011;12278;53.058;9.028;2023-03-25T07:14:32;4.95;;;2.33;;
24102;SDS011;12278;53.058;9.028;2023-03-25T07:18:33;4.68;;;2.13;;
24102;SDS011;12278;53.058;9.028;2023-03-25T07:22:34;3.60;;;2.00;;
24102;SDS011;12278;53.058;9.028;2023-03-25T07:26:35;5.18;;;2.83;;
24102;SDS011;12278;53.058;9.028;2023-03-25T07:30:36;3.92;;;2.00;;
24102;SDS011;12278;53.058;9.028;2023-03-25T07:34:36;2.13;;;1.55;;
24102;SDS011;12278;53.058;9.028;2023-03-25T07:38:37;4.85;;;2.10;;
24102;SDS011;12278;53.058;9.028;2023-03-25T07:42:43;5.70;;;2.15;;
24102;SDS011;12278;53.058;9.028;2023-03-25T07:46:45;1.77;;;1.40;;
24102;SDS011;12278;53.058;9.028;2023-03-25T07:50:49;2.03;;;1.52;;
24102;SDS011;12278;53.058;9.028;2023-03-25T07:54:51;4.90;;;2.15;;
24102;SDS011;12278;53.058;9.028;2023-03-25T07:58:59;7.35;;;2.67;;
24102;SDS011;12278;53.058;9.028;2023-03-25T08:03:01;3.10;;;1.73;;
24102;SDS011;12278;53.058;9.028;2023-03-25T08:07:05;4.50;;;2.38;;
24102;SDS011;12278;53.058;9.028;2023-03-25T08:11:07;5.47;;;2.60;;
24102;SDS011;12278;53.058;9.028;2023-03-25T08:15:07;4.70;;;2.07;;
24102;SDS011;12278;53.058;9.028;2023-03-25T08:19:12;3.10;;;2.03;;
24102;SDS011;12278;53.058;9.028;2023-03-25T08:23:19;1.97;;;1.20;;
24102;SDS011;12278;53.058;9.028;2023-03-25T08:27:21;0.70;;;0.70;;
24102;SDS011;12278;53.058;9.028;2023-03-25T08:31:23;3.50;;;1.10;;
24102;SDS011;12278;53.058;9.028;2023-03-25T08:39:37;1.47;;;0.73;;
24102;SDS011;12278;53.058;9.028;2023-03-25T08:43:38;1.90;;;1.00;;
24102;SDS011;12278;53.058;9.028;2023-03-25T08:47:39;6.23;;;1.20;;
24102;SDS011;12278;53.058;9.028;2023-03-25T08:51:49;3.67;;;1.63;;
24102;SDS011;12278;53.058;9.028;2023-03-25T08:56:03;5.20;;;1.37;;
24102;SDS011;12278;53.058;9.028;2023-03-25T09:04:15;5.83;;;1.50;;
24102;SDS011;12278;53.058;9.028;2023-03-25T09:08:17;2.87;;;1.07;;
24102;SDS011;12278;53.058;9.028;2023-03-25T09:12:27;1.60;;;1.17;;
24102;SDS011;12278;53.058;9.028;2023-03-25T09:16:28;1.13;;;0.90;;
24102;SDS011;12278;53.058;9.028;2023-03-25T09:20:33;6.90;;;1.60;;
24102;SDS011;12278;53.058;9.028;2023-03-25T09:24:34;3.97;;;1.05;;
24102;SDS011;12278;53.058;9.028;2023-03-25T09:28:38;1.73;;;0.93;;
24102;SDS011;12278;53.058;9.028;2023-03-25T09:32:39;3.08;;;1.10;;
24102;SDS011;12278;53.058;9.028;2023-03-25T09:36:39;3.25;;;1.33;;
24102;SDS011;12278;53.058;9.028;2023-03-25T09:40:41;5.35;;;1.42;;
24102;SDS011;12278;53.058;9.028;2023-03-25T09:49:02;8.02;;;1.98;;
24102;SDS011;12278;53.058;9.028;2023-03-25T09:53:22;5.15;;;2.30;;
24102;SDS011;12278;53.058;9.028;2023-03-25T09:57:46;3.30;;;1.40;;
24102;SDS011;12278;53.058;9.028;2023-03-25T10:02:00;3.47;;;1.90;;
24102;SDS011;12278;53.058;9.028;2023-03-25T10:07:22;3.85;;;1.73;;
24102;SDS011;12278;53.058;9.028;2023-03-25T10:11:17;5.22;;;1.77;;
24102;SDS011;12278;53.058;9.028;2023-03-25T10:28:05;3.45;;;2.13;;
24102;SDS011;12278;53.058;9.028;2023-03-25T10:32:14;4.82;;;1.92;;
24102;SDS011;12278;53.058;9.028;2023-03-25T10:36:18;4.70;;;1.85;;
24102;SDS011;12278;53.058;9.028;2023-03-25T10:40:33;2.80;;;1.63;;
24102;SDS011;12278;53.058;9.028;2023-03-25T10:44:37;6.55;;;1.70;;
24102;SDS011;12278;53.058;9.028;2023-03-25T10:48:38;3.47;;;1.92;;
24102;SDS011;12278;53.058;9.028;2023-03-25T10:52:40;4.47;;;1.98;;
24102;SDS011;12278;53.058;9.028;2023-03-25T10:56:43;4.68;;;1.58;;
24102;SDS011;12278;53.058;9.028;2023-03-25T11:00:46;3.35;;;1.67;;
24102;SDS011;12278;53.058;9.028;2023-03-25T11:04:54;2.47;;;1.65;;
24102;SDS011;12278;53.058;9.028;2023-03-25T11:09:12;4.00;;;2.05;;
24102;SDS011;12278;53.058;9.028;2023-03-25T11:13:28;3.55;;;2.13;;
24102;SDS011;12278;53.058;9.028;2023-03-25T11:17:29;4.80;;;1.65;;
24102;SDS011;12278;53.058;9.028;2023-03-25T11:21:32;5.30;;;1.75;;
24102;SDS011;12278;53.058;9.028;2023-03-25T11:25:36;2.40;;;1.45;;
24102;SDS011;12278;53.058;9.028;2023-03-25T11:29:40;4.07;;;1.80;;
24102;SDS011;12278;53.058;9.028;2023-03-25T11:38:15;4.30;;;2.15;;
24102;SDS011;12278;53.058;9.028;2023-03-25T11:42:28;3.45;;;1.70;;
24102;SDS011;12278;53.058;9.028;2023-03-25T11:46:40;4.35;;;2.30;;
24102;SDS011;12278;53.058;9.028;2023-03-25T11:50:44;1.77;;;1.23;;
24102;SDS011;12278;53.058;9.028;2023-03-25T11:54:54;4.43;;;1.60;;
24102;SDS011;12278;53.058;9.028;2023-03-25T11:58:56;6.05;;;2.15;;
24102;SDS011;12278;53.058;9.028;2023-03-25T12:07:14;4.05;;;2.58;;
24102;SDS011;12278;53.058;9.028;2023-03-25T12:11:28;5.70;;;1.98;;
24102;SDS011;12278;53.058;9.028;2023-03-25T12:15:41;4.00;;;2.17;;
24102;SDS011;12278;53.058;9.028;2023-03-25T12:20:09;2.30;;;1.77;;
24102;SDS011;12278;53.058;9.028;2023-03-25T12:24:26;4.90;;;3.17;;
24102;SDS011;12278;53.058;9.028;2023-03-25T12:28:40;3.45;;;2.75;;
24102;SDS011;12278;53.058;9.028;2023-03-25T12:37:08;5.55;;;2.58;;
24102;SDS011;12278;53.058;9.028;2023-03-25T12:41:20;3.42;;;2.60;;
24102;SDS011;12278;53.058;9.028;2023-03-25T12:58:02;3.63;;;1.40;;
24102;SDS011;12278;53.058;9.028;2023-03-25T13:06:41;2.40;;;1.40;;
24102;SDS011;12278;53.058;9.028;2023-03-25T13:11:09;3.10;;;1.30;;
24102;SDS011;12278;53.058;9.028;2023-03-25T13:19:19;3.17;;;0.95;;
24102;SDS011;12278;53.058;9.028;2023-03-25T13:23:23;1.57;;;0.70;;
24102;SDS011;12278;53.058;9.028;2023-03-25T13:27:29;2.85;;;1.35;;
24102;SDS011;12278;53.058;9.028;2023-03-25T13:31:36;0.52;;;0.50;;
24102;SDS011;12278;53.058;9.028;2023-03-25T13:44:46;1.52;;;1.02;;
24102;SDS011;12278;53.058;9.028;2023-03-25T13:53:32;1.77;;;1.17;;
24102;SDS011;12278;53.058;9.028;2023-03-25T14:14:53;1.45;;;0.93;;
24102;SDS011;12278;53.058;9.028;2023-03-25T14:19:00;3.08;;;1.20;;
24102;SDS011;12278;53.058;9.028;2023-03-25T14:23:06;1.83;;;1.15;;
24102;SDS011;12278;53.058;9.028;2023-03-25T14:27:22;4.03;;;1.05;;
24102;SDS011;12278;53.058;9.028;2023-03-25T14:31:30;4.85;;;1.63;;
24102;SDS011;12278;53.058;9.028;2023-03-25T14:47:49;4.93;;;1.45;;
24102;SDS011;12278;53.058;9.028;2023-03-25T14:51:55;2.40;;;1.17;;
24102;SDS011;12278;53.058;9.028;2023-03-25T14:55:59;4.60;;;1.25;;
24102;SDS011;12278;53.058;9.028;2023-03-25T15:00:01;4.90;;;1.70;;
24102;SDS011;12278;53.058;9.028;2023-03-25T15:04:21;2.53;;;1.88;;
24102;SDS011;12278;53.058;9.028;2023-03-25T15:08:37;4.13;;;1.65;;
24102;SDS011;12278;53.058;9.028;2023-03-25T15:12:40;2.35;;;1.30;;
24102;SDS011;12278;53.058;9.028;2023-03-25T15:20:45;4.80;;;1.85;;
24102;SDS011;12278;53.058;9.028;2023-03-25T15:24:50;3.53;;;1.92;;
24102;SDS011;12278;53.058;9.028;2023-03-25T15:38:32;4.55;;;1.38;;
24102;SDS011;12278;53.058;9.028;2023-03-25T15:55:26;2.42;;;1.08;;
24102;SDS011;12278;53.058;9.028;2023-03-25T16:00:11;1.65;;;1.13;;
24102;SDS011;12278;53.058;9.028;2023-03-25T16:08:39;3.15;;;1.30;;
24102;SDS011;12278;53.058;9.028;2023-03-25T16:12:42;5.38;;;1.52;;
24102;SDS011;12278;53.058;9.028;2023-03-25T16:16:51;2.35;;;1.33;;
24102;SDS011;12278;53.058;9.028;2023-03-25T16:20:55;3.20;;;1.58;;
24102;SDS011;12278;53.058;9.028;2023-03-25T16:24:59;2.35;;;2.05;;
24102;SDS011;12278;53.058;9.028;2023-03-25T16:29:13;3.88;;;3.00;;
24102;SDS011;12278;53.058;9.028;2023-03-25T16:33:17;3.30;;;1.73;;
24102;SDS011;12278;53.058;9.028;2023-03-25T16:37:38;6.45;;;1.15;;
24102;SDS011;12278;53.058;9.028;2023-03-25T16:41:46;1.02;;;0.55;;
24102;SDS011;12278;53.058;9.028;2023-03-25T16:45:49;3.43;;;1.00;;
24102;SDS011;12278;53.058;9.028;2023-03-25T16:49:51;4.30;;;1.20;;
24102;SDS011;12278;53.058;9.028;2023-03-25T16:53:55;5.38;;;1.63;;
24102;SDS011;12278;53.058;9.028;2023-03-25T16:57:59;0.77;;;0.60;;
24102;SDS011;12278;53.058;9.028;2023-03-25T17:02:01;6.47;;;1.00;;
24102;SDS011;12278;53.058;9.028;2023-03-25T17:06:07;3.53;;;1.00;;
24102;SDS011;12278;53.058;9.028;2023-03-25T17:10:20;1.00;;;0.67;;
24102;SDS011;12278;53.058;9.028;2023-03-25T17:14:25;2.50;;;0.87;;
24102;SDS011;12278;53.058;9.028;2023-03-25T17:18:29;2.47;;;1.03;;
24102;SDS011;12278;53.058;9.028;2023-03-25T17:22:32;1.50;;;1.08;;
24102;SDS011;12278;53.058;9.028;2023-03-25T17:26:52;3.53;;;1.13;;
24102;SDS011;12278;53.058;9.028;2023-03-25T17:30:55;1.37;;;1.20;;
24102;SDS011;12278;53.058;9.028;2023-03-25T17:34:57;3.20;;;1.48;;
24102;SDS011;12278;53.058;9.028;2023-03-25T17:39:12;0.97;;;0.90;;
24102;SDS011;12278;53.058;9.028;2023-03-25T17:43:17;2.73;;;1.40;;
24102;SDS011;12278;53.058;9.028;2023-03-25T17:47:19;3.90;;;2.05;;
24102;SDS011;12278;53.058;9.028;2023-03-25T17:51:20;3.17;;;1.63;;
24102;SDS011;12278;53.058;9.028;2023-03-25T17:55:22;1.77;;;1.40;;
24102;SDS011;12278;53.058;9.028;2023-03-25T17:59:23;5.10;;;1.98;;
24102;SDS011;12278;53.058;9.028;2023-03-25T18:03:26;4.55;;;2.20;;
24102;SDS011;12278;53.058;9.028;2023-03-25T18:07:29;1.58;;;1.48;;
24102;SDS011;12278;53.058;9.028;2023-03-25T18:11:30;3.03;;;1.57;;
24102;SDS011;12278;53.058;9.028;2023-03-25T18:15:30;1.13;;;0.93;;
24102;SDS011;12278;53.058;9.028;2023-03-25T18:19:31;5.60;;;1.70;;
24102;SDS011;12278;53.058;9.028;2023-03-25T18:27:37;3.13;;;2.37;;
24102;SDS011;12278;53.058;9.028;2023-03-25T18:31:38;4.37;;;2.17;;
24102;SDS011;12278;53.058;9.028;2023-03-25T18:35:42;1.50;;;1.37;;
24102;SDS011;12278;53.058;9.028;2023-03-25T18:39:43;2.77;;;1.60;;
24102;SDS011;12278;53.058;9.028;2023-03-25T18:43:44;3.30;;;1.47;;
24102;SDS011;12278;53.058;9.028;2023-03-25T18:47:44;4.07;;;1.60;;
24102;SDS011;12278;53.058;9.028;2023-03-25T18:51:45;1.70;;;1.27;;
24102;SDS011;12278;53.058;9.028;2023-03-25T18:55:47;4.87;;;1.67;;
24102;SDS011;12278;53.058;9.028;2023-03-25T18:59:48;1.17;;;1.07;;
24102;SDS011;12278;53.058;9.028;2023-03-25T19:03:49;1.77;;;1.30;;
24102;SDS011;12278;53.058;9.028;2023-03-25T19:07:50;2.10;;;1.90;;
24102;SDS011;12278;53.058;9.028;2023-03-25T19:11:51;1.17;;;1.00;;
24102;SDS011;12278;53.058;9.028;2023-03-25T19:15:58;4.20;;;1.60;;
24102;SDS011;12278;53.058;9.028;2023-03-25T19:19:59;5.83;;;1.83;;
24102;SDS011;12278;53.058;9.028;2023-03-25T19:23:59;3.90;;;1.67;;
24102;SDS011;12278;53.058;9.028;2023-03-25T19:28:00;2.35;;;1.38;;
24102;SDS011;12278;53.058;9.028;2023-03-25T19:32:01;1.70;;;1.20;;
24102;SDS011;12278;53.058;9.028;2023-03-25T19:36:06;2.73;;;1.73;;
24102;SDS011;12278;53.058;9.028;2023-03-25T19:40:12;4.00;;;1.80;;
24102;SDS011;12278;53.058;9.028;2023-03-25T19:48:45;2.67;;;1.50;;
24102;SDS011;12278;53.058;9.028;2023-03-25T19:52:47;7.45;;;1.85;;
24102;SDS011;12278;53.058;9.028;2023-03-25T19:56:49;5.37;;;1.83;;
24102;SDS011;12278;53.058;9.028;2023-03-25T20:00:49;5.60;;;2.20;;
24102;SDS011;12278;53.058;9.028;2023-03-25T20:04:50;3.73;;;2.07;;
24102;SDS011;12278;53.058;9.028;2023-03-25T20:08:51;6.23;;;2.27;;
24102;SDS011;12278;53.058;9.028;2023-03-25T20:13:03;8.00;;;3.33;;
24102;SDS011;12278;53.058;9.028;2023-03-25T20:17:03;3.67;;;2.30;;
24102;SDS011;12278;53.058;9.028;2023-03-25T20:21:07;3.67;;;1.50;;
24102;SDS011;12278;53.058;9.028;2023-03-25T20:25:09;4.27;;;1.70;;
24102;SDS011;12278;53.058;9.028;2023-03-25T20:29:11;5.10;;;2.10;;
24102;SDS011;12278;53.058;9.028;2023-03-25T20:33:11;5.10;;;2.00;;
24102;SDS011;12278;53.058;9.028;2023-03-25T20:37:12;3.77;;;1.67;;
24102;SDS011;12278;53.058;9.028;2023-03-25T20:41:13;4.03;;;2.17;;
24102;SDS011;12278;53.058;9.028;2023-03-25T20:45:15;7.33;;;2.70;;
24102;SDS011;12278;53.058;9.028;2023-03-25T20:49:16;4.43;;;2.07;;
24102;SDS011;12278;53.058;9.028;2023-03-25T20:53:18;7.80;;;2.80;;
24102;SDS011;12278;53.058;9.028;2023-03-25T20:57:21;5.43;;;1.80;;
24102;SDS011;12278;53.058;9.028;2023-03-25T21:01:22;9.43;;;2.70;;
24102;SDS011;12278;53.058;9.028;2023-03-25T21:05:23;6.57;;;2.97;;
24102;SDS011;12278;53.058;9.028;2023-03-25T21:09:26;6.50;;;2.43;;
24102;SDS011;12278;53.058;9.028;2023-03-25T21:13:27;9.47;;;3.30;;
24102;SDS011;12278;53.058;9.028;2023-03-25T21:17:30;4.80;;;2.80;;
24102;SDS011;12278;53.058;9.028;2023-03-25T21:21:31;4.87;;;2.87;;
24102;SDS011;12278;53.058;9.028;2023-03-25T21:25:32;6.60;;;2.30;;
24102;SDS011;12278;53.058;9.028;2023-03-25T21:29:36;5.80;;;3.00;;
24102;SDS011;12278;53.058;9.028;2023-03-25T21:33:38;5.73;;;3.07;;
24102;SDS011;12278;53.058;9.028;2023-03-25T21:37:40;7.53;;;2.47;;
24102;SDS011;12278;53.058;9.028;2023-03-25T21:41:41;9.10;;;3.27;;
24102;SDS011;12278;53.058;9.028;2023-03-25T21:45:55;8.90;;;3.70;;
24102;SDS011;12278;53.058;9.028;2023-03-25T21:49:55;10.90;;;3.13;;
24102;SDS011;12278;53.058;9.028;2023-03-25T21:53:56;9.23;;;3.00;;
24102;SDS011;12278;53.058;9.028;2023-03-25T21:57:59;8.43;;;2.87;;
24102;SDS011;12278;53.058;9.028;2023-03-25T22:01:59;11.50;;;3.40;;
24102;SDS011;12278;53.058;9.028;2023-03-25T22:06:07;5.87;;;2.17;;
24102;SDS011;12278;53.058;9.028;2023-03-25T22:10:10;8.87;;;2.63;;
24102;SDS011;12278;53.058;9.028;2023-03-25T22:14:11;8.50;;;2.70;;
24102;SDS011;12278;53.058;9.028;2023-03-25T22:22:28;6.00;;;2.50;;
24102;SDS011;12278;53.058;9.028;2023-03-25T22:26:29;7.73;;;3.20;;
24102;SDS011;12278;53.058;9.028;2023-03-25T22:30:31;7.63;;;2.90;;
24102;SDS011;12278;53.058;9.028;2023-03-25T22:34:32;12.70;;;3.10;;
24102;SDS011;12278;53.058;9.028;2023-03-25T22:38:33;13.20;;;3.30;;
24102;SDS011;12278;53.058;9.028;2023-03-25T22:42:34;10.70;;;3.20;;
24102;SDS011;12278;53.058;9.028;2023-03-25T22:46:34;11.57;;;3.90;;
24102;SDS011;12278;53.058;9.028;2023-03-25T22:54:40;9.10;;;3.50;;
24102;SDS011;12278;53.058;9.028;2023-03-25T22:58:41;12.00;;;3.10;;
24102;SDS011;12278;53.058;9.028;2023-03-25T23:02:51;9.13;;;2.67;;
24102;SDS011;12278;53.058;9.028;2023-03-25T23:06:52;5.60;;;3.00;;
24102;SDS011;12278;53.058;9.028;2023-03-25T23:10:53;5.67;;;3.10;;
24102;SDS011;12278;53.058;9.028;2023-03-25T23:14:54;4.40;;;2.40;;
24102;SDS011;12278;53.058;9.028;2023-03-25T23:18:56;7.40;;;2.20;;
24102;SDS011;12278;53.058;9.028;2023-03-25T23:22:57;9.10;;;2.87;;
24102;SDS011;12278;53.058;9.028;2023-03-25T23:26:58;10.97;;;3.07;;
24102;SDS011;12278;53.058;9.028;2023-03-25T23:30:59;11.03;;;3.13;;
24102;SDS011;12278;53.058;9.028;2023-03-25T23:35:00;8.03;;;2.90;;
24102;SDS011;12278;53.058;9.028;2023-03-25T23:39:07;8.00;;;2.63;;
24102;SDS011;12278;53.058;9.028;2023-03-25T23:43:09;7.67;;;3.63;;
24102;SDS011;12278;53.058;9.028;2023-03-25T23:47:10;6.33;;;2.93;;
24102;SDS011;12278;53.058;9.028;2023-03-25T23:51:16;6.00;;;2.40;;
24102;SDS011;12278;53.058;9.028;2023-03-25T23:55:19;11.23;;;3.73;;
24102;SDS011;12278;53.058;9.028;2023-03-25T23:59:19;9.47;;;3.10;;
